sensor_id;sensor_type;location;lat;lon;timestamp;P1;durP1;ratioP1;P2;durP2;ratioP2
6420;SDS011;3243;50.958;7.012;2023-04-03T00:00:35;5.13;;;2.90;;
6420;SDS011;3243;50.958;7.012;2023-04-03T00:03:03;3.60;;;2.90;;
6420;SDS011;3243;50.958;7.012;2023-04-03T00:05:30;4.37;;;2.87;;
6420;SDS011;3243;50.958;7.012;2023-04-03T00:07:57;4.17;;;2.90;;
6420;SDS011;3243;50.958;7.012;2023-04-03T00:10:24;4.83;;;3.20;;
6420;SDS011;3243;50.958;7.012;2023-04-03T00:12:51;4.70;;;2.93;;
6420;SDS011;3243;50.958;7.012;2023-04-03T00:15:18;4.50;;;3.13;;
6420;SDS011;3243;50.958;7.012;2023-04-03T00:17:45;6.15;;;3.20;;
6420;SDS011;3243;50.958;7.012;2023-04-03T00:20:12;3.90;;;3.13;;
6420;SDS011;3243;50.958;7.012;2023-04-03T00:22:39;5.53;;;3.30;;
6420;SDS011;3243;50.958;7.012;2023-04-03T00:25:06;5.50;;;3.33;;
6420;SDS011;3243;50.958;7.012;2023-04-03T00:27:35;8.60;;;3.40;;
6420;SDS011;3243;50.958;7.012;2023-04-03T00:30:04;4.57;;;3.10;;
6420;SDS011;3243;50.958;7.012;2023-04-03T00:32:32;5.27;;;3.50;;
6420;SDS011;3243;50.958;7.012;2023-04-03T00:34:59;7.67;;;3.37;;
6420;SDS011;3243;50.958;7.012;2023-04-03T00:37:26;4.50;;;3.43;;
6420;SDS011;3243;50.958;7.012;2023-04-03T00:39:53;5.50;;;3.50;;
6420;SDS011;3243;50.958;7.012;2023-04-03T00:42:20;5.53;;;3.17;;
6420;SDS011;3243;50.958;7.012;2023-04-03T00:47:15;7.27;;;3.30;;
6420;SDS011;3243;50.958;7.012;2023-04-03T00:49:43;5.50;;;3.50;;
6420;SDS011;3243;50.958;7.012;2023-04-03T00:52:12;5.83;;;3.67;;
6420;SDS011;3243;50.958;7.012;2023-04-03T00:54:43;5.83;;;3.30;;
6420;SDS011;3243;50.958;7.012;2023-04-03T00:57:13;4.63;;;3.47;;
6420;SDS011;3243;50.958;7.012;2023-04-03T00:59:46;4.37;;;3.23;;
6420;SDS011;3243;50.958;7.012;2023-04-03T01:02:16;4.80;;;3.30;;
6420;SDS011;3243;50.958;7.012;2023-04-03T01:04:44;4.73;;;3.30;;
6420;SDS011;3243;50.958;7.012;2023-04-03T01:07:23;5.13;;;3.67;;
6420;SDS011;3243;50.958;7.012;2023-04-03T01:09:55;6.10;;;3.60;;
6420;SDS011;3243;50.958;7.012;2023-04-03T01:12:25;4.63;;;3.23;;
6420;SDS011;3243;50.958;7.012;2023-04-03T01:14:59;6.23;;;3.80;;
6420;SDS011;3243;50.958;7.012;2023-04-03T01:17:43;5.53;;;3.40;;
6420;SDS011;3243;50.958;7.012;2023-04-03T01:20:42;4.63;;;3.20;;
6420;SDS011;3243;50.958;7.012;2023-04-03T01:23:27;3.77;;;3.07;;
6420;SDS011;3243;50.958;7.012;2023-04-03T01:25:57;4.47;;;3.20;;
6420;SDS011;3243;50.958;7.012;2023-04-03T01:28:32;5.67;;;3.47;;
6420;SDS011;3243;50.958;7.012;2023-04-03T01:33:53;3.77;;;3.00;;
6420;SDS011;3243;50.958;7.012;2023-04-03T01:36:22;7.30;;;3.67;;
6420;SDS011;3243;50.958;7.012;2023-04-03T01:38:52;4.97;;;3.00;;
6420;SDS011;3243;50.958;7.012;2023-04-03T01:41:19;4.60;;;2.93;;
6420;SDS011;3243;50.958;7.012;2023-04-03T01:43:47;5.77;;;3.13;;
6420;SDS011;3243;50.958;7.012;2023-04-03T01:46:15;4.07;;;3.30;;
6420;SDS011;3243;50.958;7.012;2023-04-03T01:48:42;5.53;;;3.47;;
6420;SDS011;3243;50.958;7.012;2023-04-03T01:51:09;4.87;;;3.20;;
6420;SDS011;3243;50.958;7.012;2023-04-03T01:53:37;3.93;;;3.40;;
6420;SDS011;3243;50.958;7.012;2023-04-03T01:56:04;4.80;;;3.57;;
6420;SDS011;3243;50.958;7.012;2023-04-03T01:58:31;6.27;;;3.80;;
6420;SDS011;3243;50.958;7.012;2023-04-03T02:00:58;4.40;;;3.60;;
6420;SDS011;3243;50.958;7.012;2023-04-03T02:03:25;4.83;;;3.90;;
6420;SDS011;3243;50.958;7.012;2023-04-03T02:05:52;3.93;;;3.53;;
6420;SDS011;3243;50.958;7.012;2023-04-03T02:08:19;3.90;;;3.50;;
6420;SDS011;3243;50.958;7.012;2023-04-03T02:10:47;4.93;;;3.43;;
6420;SDS011;3243;50.958;7.012;2023-04-03T02:13:15;4.97;;;3.57;;
6420;SDS011;3243;50.958;7.012;2023-04-03T02:15:42;5.73;;;3.40;;
6420;SDS011;3243;50.958;7.012;2023-04-03T02:18:09;4.70;;;3.47;;
6420;SDS011;3243;50.958;7.012;2023-04-03T02:20:36;6.80;;;3.50;;
6420;SDS011;3243;50.958;7.012;2023-04-03T02:23:04;7.77;;;3.60;;
6420;SDS011;3243;50.958;7.012;2023-04-03T02:25:32;4.53;;;3.33;;
6420;SDS011;3243;50.958;7.012;2023-04-03T02:27:58;6.10;;;3.73;;
6420;SDS011;3243;50.958;7.012;2023-04-03T02:30:25;5.80;;;3.50;;
6420;SDS011;3243;50.958;7.012;2023-04-03T02:32:52;4.50;;;3.20;;
6420;SDS011;3243;50.958;7.012;2023-04-03T02:35:19;5.47;;;3.10;;
6420;SDS011;3243;50.958;7.012;2023-04-03T02:37:46;5.30;;;2.93;;
6420;SDS011;3243;50.958;7.012;2023-04-03T02:40:13;4.17;;;3.47;;
6420;SDS011;3243;50.958;7.012;2023-04-03T02:42:41;4.60;;;3.40;;
6420;SDS011;3243;50.958;7.012;2023-04-03T02:45:08;7.83;;;3.67;;
6420;SDS011;3243;50.958;7.012;2023-04-03T02:47:35;8.37;;;3.50;;
6420;SDS011;3243;50.958;7.012;2023-04-03T02:50:02;7.17;;;3.70;;
6420;SDS011;3243;50.958;7.012;2023-04-03T02:52:29;4.73;;;3.57;;
6420;SDS011;3243;50.958;7.012;2023-04-03T02:54:56;7.60;;;3.70;;
6420;SDS011;3243;50.958;7.012;2023-04-03T02:57:23;4.70;;;3.43;;
6420;SDS011;3243;50.958;7.012;2023-04-03T02:59:50;7.53;;;3.60;;
6420;SDS011;3243;50.958;7.012;2023-04-03T03:02:17;6.47;;;3.30;;
6420;SDS011;3243;50.958;7.012;2023-04-03T03:04:45;5.03;;;3.50;;
6420;SDS011;3243;50.958;7.012;2023-04-03T03:07:12;4.87;;;3.73;;
6420;SDS011;3243;50.958;7.012;2023-04-03T03:09:39;4.40;;;3.60;;
6420;SDS011;3243;50.958;7.012;2023-04-03T03:12:06;4.63;;;3.13;;
6420;SDS011;3243;50.958;7.012;2023-04-03T03:14:33;4.43;;;3.10;;
6420;SDS011;3243;50.958;7.012;2023-04-03T03:16:59;3.97;;;3.57;;
6420;SDS011;3243;50.958;7.012;2023-04-03T03:19:26;7.87;;;3.73;;
6420;SDS011;3243;50.958;7.012;2023-04-03T03:21:53;5.20;;;3.50;;
6420;SDS011;3243;50.958;7.012;2023-04-03T03:24:21;5.23;;;3.57;;
6420;SDS011;3243;50.958;7.012;2023-04-03T03:26:47;5.77;;;3.43;;
6420;SDS011;3243;50.958;7.012;2023-04-03T03:29:14;5.73;;;3.77;;
6420;SDS011;3243;50.958;7.012;2023-04-03T03:31:42;4.57;;;3.40;;
6420;SDS011;3243;50.958;7.012;2023-04-03T03:34:09;8.43;;;3.60;;
6420;SDS011;3243;50.958;7.012;2023-04-03T03:36:36;4.17;;;3.40;;
6420;SDS011;3243;50.958;7.012;2023-04-03T03:39:02;4.20;;;3.60;;
6420;SDS011;3243;50.958;7.012;2023-04-03T03:41:29;4.10;;;3.30;;
6420;SDS011;3243;50.958;7.012;2023-04-03T03:43:57;4.37;;;2.97;;
6420;SDS011;3243;50.958;7.012;2023-04-03T03:46:23;3.33;;;3.03;;
6420;SDS011;3243;50.958;7.012;2023-04-03T03:48:51;4.60;;;3.20;;
6420;SDS011;3243;50.958;7.012;2023-04-03T03:51:17;5.63;;;3.20;;
6420;SDS011;3243;50.958;7.012;2023-04-03T03:53:45;5.30;;;3.20;;
6420;SDS011;3243;50.958;7.012;2023-04-03T03:56:12;4.20;;;3.00;;
6420;SDS011;3243;50.958;7.012;2023-04-03T03:58:39;5.77;;;3.10;;
6420;SDS011;3243;50.958;7.012;2023-04-03T04:01:06;5.80;;;3.40;;
6420;SDS011;3243;50.958;7.012;2023-04-03T04:03:33;4.47;;;2.97;;
6420;SDS011;3243;50.958;7.012;2023-04-03T04:06:00;5.37;;;3.00;;
6420;SDS011;3243;50.958;7.012;2023-04-03T04:08:27;4.50;;;2.77;;
6420;SDS011;3243;50.958;7.012;2023-04-03T04:10:54;4.43;;;2.80;;
6420;SDS011;3243;50.958;7.012;2023-04-03T04:13:21;5.50;;;3.20;;
6420;SDS011;3243;50.958;7.012;2023-04-03T04:15:48;4.83;;;3.10;;
6420;SDS011;3243;50.958;7.012;2023-04-03T04:18:15;5.37;;;3.00;;
6420;SDS011;3243;50.958;7.012;2023-04-03T04:20:44;5.33;;;3.00;;
6420;SDS011;3243;50.958;7.012;2023-04-03T04:23:12;4.50;;;2.80;;
6420;SDS011;3243;50.958;7.012;2023-04-03T04:25:39;3.43;;;2.80;;
6420;SDS011;3243;50.958;7.012;2023-04-03T04:28:06;4.07;;;2.70;;
6420;SDS011;3243;50.958;7.012;2023-04-03T04:30:33;4.30;;;2.60;;
6420;SDS011;3243;50.958;7.012;2023-04-03T04:33:00;4.33;;;2.67;;
6420;SDS011;3243;50.958;7.012;2023-04-03T04:35:27;3.43;;;2.80;;
6420;SDS011;3243;50.958;7.012;2023-04-03T04:37:54;3.67;;;2.50;;
6420;SDS011;3243;50.958;7.012;2023-04-03T04:40:21;3.37;;;2.60;;
6420;SDS011;3243;50.958;7.012;2023-04-03T04:42:49;2.87;;;2.50;;
6420;SDS011;3243;50.958;7.012;2023-04-03T04:45:15;4.37;;;2.77;;
6420;SDS011;3243;50.958;7.012;2023-04-03T04:47:43;3.60;;;2.43;;
6420;SDS011;3243;50.958;7.012;2023-04-03T04:50:10;4.07;;;3.00;;
6420;SDS011;3243;50.958;7.012;2023-04-03T04:52:38;3.97;;;2.40;;
6420;SDS011;3243;50.958;7.012;2023-04-03T04:55:05;4.90;;;3.13;;
6420;SDS011;3243;50.958;7.012;2023-04-03T04:57:32;4.77;;;2.67;;
6420;SDS011;3243;50.958;7.012;2023-04-03T04:59:58;4.47;;;2.60;;
6420;SDS011;3243;50.958;7.012;2023-04-03T05:02:26;5.37;;;2.93;;
6420;SDS011;3243;50.958;7.012;2023-04-03T05:04:52;5.10;;;2.70;;
6420;SDS011;3243;50.958;7.012;2023-04-03T05:07:19;3.77;;;2.77;;
6420;SDS011;3243;50.958;7.012;2023-04-03T05:09:46;4.87;;;2.90;;
6420;SDS011;3243;50.958;7.012;2023-04-03T05:12:13;3.47;;;2.73;;
6420;SDS011;3243;50.958;7.012;2023-04-03T05:14:40;4.53;;;2.60;;
6420;SDS011;3243;50.958;7.012;2023-04-03T05:17:07;3.67;;;2.40;;
6420;SDS011;3243;50.958;7.012;2023-04-03T05:19:34;4.77;;;2.57;;
6420;SDS011;3243;50.958;7.012;2023-04-03T05:22:02;5.47;;;2.70;;
6420;SDS011;3243;50.958;7.012;2023-04-03T05:24:28;5.17;;;2.87;;
6420;SDS011;3243;50.958;7.012;2023-04-03T05:26:55;5.73;;;2.70;;
6420;SDS011;3243;50.958;7.012;2023-04-03T05:29:23;4.60;;;2.93;;
6420;SDS011;3243;50.958;7.012;2023-04-03T05:31:49;6.90;;;2.27;;
6420;SDS011;3243;50.958;7.012;2023-04-03T05:34:16;5.37;;;2.97;;
6420;SDS011;3243;50.958;7.012;2023-04-03T05:36:43;3.33;;;2.20;;
6420;SDS011;3243;50.958;7.012;2023-04-03T05:39:11;5.87;;;2.37;;
6420;SDS011;3243;50.958;7.012;2023-04-03T05:41:37;5.47;;;3.00;;
6420;SDS011;3243;50.958;7.012;2023-04-03T05:44:04;6.40;;;2.60;;
6420;SDS011;3243;50.958;7.012;2023-04-03T05:46:31;5.30;;;2.57;;
6420;SDS011;3243;50.958;7.012;2023-04-03T05:48:59;4.07;;;2.30;;
6420;SDS011;3243;50.958;7.012;2023-04-03T05:51:28;4.53;;;2.80;;
6420;SDS011;3243;50.958;7.012;2023-04-03T05:54:01;7.23;;;2.67;;
6420;SDS011;3243;50.958;7.012;2023-04-03T05:56:35;5.93;;;2.70;;
6420;SDS011;3243;50.958;7.012;2023-04-03T05:59:02;4.13;;;3.10;;
6420;SDS011;3243;50.958;7.012;2023-04-03T06:01:29;5.87;;;2.70;;
6420;SDS011;3243;50.958;7.012;2023-04-03T06:03:56;5.47;;;3.00;;
6420;SDS011;3243;50.958;7.012;2023-04-03T06:06:25;6.37;;;3.37;;
6420;SDS011;3243;50.958;7.012;2023-04-03T06:08:52;6.00;;;3.33;;
6420;SDS011;3243;50.958;7.012;2023-04-03T06:11:19;5.43;;;3.00;;
6420;SDS011;3243;50.958;7.012;2023-04-03T06:13:47;6.83;;;3.33;;
6420;SDS011;3243;50.958;7.012;2023-04-03T06:16:14;4.27;;;2.97;;
6420;SDS011;3243;50.958;7.012;2023-04-03T06:18:43;6.33;;;2.97;;
6420;SDS011;3243;50.958;7.012;2023-04-03T06:21:09;5.67;;;3.20;;
6420;SDS011;3243;50.958;7.012;2023-04-03T06:23:36;6.37;;;3.17;;
6420;SDS011;3243;50.958;7.012;2023-04-03T06:26:03;6.27;;;2.97;;
6420;SDS011;3243;50.958;7.012;2023-04-03T06:28:31;6.07;;;2.90;;
6420;SDS011;3243;50.958;7.012;2023-04-03T06:30:58;3.07;;;2.40;;
6420;SDS011;3243;50.958;7.012;2023-04-03T06:33:25;6.33;;;2.53;;
6420;SDS011;3243;50.958;7.012;2023-04-03T06:35:55;4.53;;;2.60;;
6420;SDS011;3243;50.958;7.012;2023-04-03T06:38:26;3.57;;;2.53;;
6420;SDS011;3243;50.958;7.012;2023-04-03T06:40:52;4.90;;;2.53;;
6420;SDS011;3243;50.958;7.012;2023-04-03T06:43:20;5.90;;;2.50;;
6420;SDS011;3243;50.958;7.012;2023-04-03T06:45:49;2.90;;;2.50;;
6420;SDS011;3243;50.958;7.012;2023-04-03T06:48:16;4.43;;;2.60;;
6420;SDS011;3243;50.958;7.012;2023-04-03T06:50:43;4.17;;;2.77;;
6420;SDS011;3243;50.958;7.012;2023-04-03T06:53:10;3.83;;;2.33;;
6420;SDS011;3243;50.958;7.012;2023-04-03T06:55:38;7.47;;;2.23;;
6420;SDS011;3243;50.958;7.012;2023-04-03T06:58:05;4.27;;;2.23;;
6420;SDS011;3243;50.958;7.012;2023-04-03T07:00:32;3.93;;;2.30;;
6420;SDS011;3243;50.958;7.012;2023-04-03T07:02:59;3.70;;;2.20;;
6420;SDS011;3243;50.958;7.012;2023-04-03T07:05:26;4.23;;;2.20;;
6420;SDS011;3243;50.958;7.012;2023-04-03T07:07:52;6.07;;;2.20;;
6420;SDS011;3243;50.958;7.012;2023-04-03T07:10:19;4.03;;;2.37;;
6420;SDS011;3243;50.958;7.012;2023-04-03T07:12:46;5.87;;;2.63;;
6420;SDS011;3243;50.958;7.012;2023-04-03T07:15:13;3.37;;;2.10;;
6420;SDS011;3243;50.958;7.012;2023-04-03T07:17:40;4.40;;;2.10;;
6420;SDS011;3243;50.958;7.012;2023-04-03T07:20:07;3.70;;;2.07;;
6420;SDS011;3243;50.958;7.012;2023-04-03T07:22:35;4.50;;;2.13;;
6420;SDS011;3243;50.958;7.012;2023-04-03T07:25:01;5.30;;;2.30;;
6420;SDS011;3243;50.958;7.012;2023-04-03T07:27:29;7.63;;;2.50;;
6420;SDS011;3243;50.958;7.012;2023-04-03T07:29:55;3.67;;;2.13;;
6420;SDS011;3243;50.958;7.012;2023-04-03T07:32:22;5.37;;;2.03;;
6420;SDS011;3243;50.958;7.012;2023-04-03T07:34:49;7.57;;;2.70;;
6420;SDS011;3243;50.958;7.012;2023-04-03T07:37:16;2.90;;;2.17;;
6420;SDS011;3243;50.958;7.012;2023-04-03T07:39:44;5.10;;;2.10;;
6420;SDS011;3243;50.958;7.012;2023-04-03T07:42:11;4.90;;;2.20;;
6420;SDS011;3243;50.958;7.012;2023-04-03T07:44:38;4.43;;;1.93;;
6420;SDS011;3243;50.958;7.012;2023-04-03T07:47:05;3.87;;;2.10;;
6420;SDS011;3243;50.958;7.012;2023-04-03T07:49:32;3.90;;;2.00;;
6420;SDS011;3243;50.958;7.012;2023-04-03T07:51:59;2.53;;;2.00;;
6420;SDS011;3243;50.958;7.012;2023-04-03T07:54:25;4.13;;;2.20;;
6420;SDS011;3243;50.958;7.012;2023-04-03T07:56:52;2.93;;;1.80;;
6420;SDS011;3243;50.958;7.012;2023-04-03T07:59:19;5.47;;;2.20;;
6420;SDS011;3243;50.958;7.012;2023-04-03T08:01:46;2.63;;;1.50;;
6420;SDS011;3243;50.958;7.012;2023-04-03T08:04:13;4.97;;;2.07;;
6420;SDS011;3243;50.958;7.012;2023-04-03T08:06:40;4.27;;;1.97;;
6420;SDS011;3243;50.958;7.012;2023-04-03T08:09:12;4.17;;;2.03;;
6420;SDS011;3243;50.958;7.012;2023-04-03T08:11:42;4.70;;;2.10;;
6420;SDS011;3243;50.958;7.012;2023-04-03T08:14:10;3.60;;;1.90;;
6420;SDS011;3243;50.958;7.012;2023-04-03T08:16:43;5.77;;;2.30;;
6420;SDS011;3243;50.958;7.012;2023-04-03T08:19:11;3.33;;;1.90;;
6420;SDS011;3243;50.958;7.012;2023-04-03T08:21:50;3.93;;;2.20;;
6420;SDS011;3243;50.958;7.012;2023-04-03T08:24:17;4.80;;;2.20;;
6420;SDS011;3243;50.958;7.012;2023-04-03T08:26:44;4.67;;;2.00;;
6420;SDS011;3243;50.958;7.012;2023-04-03T08:29:11;6.10;;;2.00;;
6420;SDS011;3243;50.958;7.012;2023-04-03T08:31:37;3.07;;;1.70;;
6420;SDS011;3243;50.958;7.012;2023-04-03T08:34:05;4.77;;;2.00;;
6420;SDS011;3243;50.958;7.012;2023-04-03T08:36:32;4.43;;;2.10;;
6420;SDS011;3243;50.958;7.012;2023-04-03T08:38:58;4.57;;;2.00;;
6420;SDS011;3243;50.958;7.012;2023-04-03T08:44:17;3.13;;;1.80;;
6420;SDS011;3243;50.958;7.012;2023-04-03T08:49:59;3.17;;;1.83;;
6420;SDS011;3243;50.958;7.012;2023-04-03T08:54:55;3.10;;;1.90;;
6420;SDS011;3243;50.958;7.012;2023-04-03T08:57:44;2.73;;;1.50;;
6420;SDS011;3243;50.958;7.012;2023-04-03T09:00:18;2.10;;;1.60;;
6420;SDS011;3243;50.958;7.012;2023-04-03T09:02:51;2.17;;;1.50;;
6420;SDS011;3243;50.958;7.012;2023-04-03T09:21:50;2.93;;;1.53;;
6420;SDS011;3243;50.958;7.012;2023-04-03T09:24:16;2.90;;;1.60;;
6420;SDS011;3243;50.958;7.012;2023-04-03T09:29:17;3.57;;;2.10;;
6420;SDS011;3243;50.958;7.012;2023-04-03T09:31:47;2.80;;;1.67;;
6420;SDS011;3243;50.958;7.012;2023-04-03T09:34:26;3.53;;;1.63;;
6420;SDS011;3243;50.958;7.012;2023-04-03T09:36:59;2.83;;;1.50;;
6420;SDS011;3243;50.958;7.012;2023-04-03T09:39:33;3.07;;;1.70;;
6420;SDS011;3243;50.958;7.012;2023-04-03T09:42:18;3.83;;;1.70;;
6420;SDS011;3243;50.958;7.012;2023-04-03T09:44:53;3.20;;;1.67;;
6420;SDS011;3243;50.958;7.012;2023-04-03T09:47:32;3.90;;;1.53;;
6420;SDS011;3243;50.958;7.012;2023-04-03T09:52:45;2.70;;;1.57;;
6420;SDS011;3243;50.958;7.012;2023-04-03T09:55:15;4.57;;;1.90;;
6420;SDS011;3243;50.958;7.012;2023-04-03T09:57:47;2.27;;;1.47;;
6420;SDS011;3243;50.958;7.012;2023-04-03T10:00:23;2.90;;;1.70;;
6420;SDS011;3243;50.958;7.012;2023-04-03T10:02:58;2.87;;;1.37;;
6420;SDS011;3243;50.958;7.012;2023-04-03T10:05:33;3.03;;;1.50;;
6420;SDS011;3243;50.958;7.012;2023-04-03T10:10:40;2.63;;;1.40;;
6420;SDS011;3243;50.958;7.012;2023-04-03T10:13:12;3.10;;;1.50;;
6420;SDS011;3243;50.958;7.012;2023-04-03T10:16:03;2.43;;;1.30;;
6420;SDS011;3243;50.958;7.012;2023-04-03T10:27:24;2.43;;;1.60;;
6420;SDS011;3243;50.958;7.012;2023-04-03T10:32:36;1.67;;;1.43;;
6420;SDS011;3243;50.958;7.012;2023-04-03T10:35:30;1.53;;;1.23;;
6420;SDS011;3243;50.958;7.012;2023-04-03T10:38:13;3.33;;;1.50;;
6420;SDS011;3243;50.958;7.012;2023-04-03T10:43:33;2.23;;;1.40;;
6420;SDS011;3243;50.958;7.012;2023-04-03T10:54:20;2.73;;;1.47;;
6420;SDS011;3243;50.958;7.012;2023-04-03T10:57:02;3.33;;;1.30;;
6420;SDS011;3243;50.958;7.012;2023-04-03T10:59:45;1.93;;;1.63;;
6420;SDS011;3243;50.958;7.012;2023-04-03T11:02:21;2.33;;;1.50;;
6420;SDS011;3243;50.958;7.012;2023-04-03T11:05:06;1.57;;;1.20;;
6420;SDS011;3243;50.958;7.012;2023-04-03T11:07:54;1.63;;;1.20;;
6420;SDS011;3243;50.958;7.012;2023-04-03T11:10:36;1.70;;;1.40;;
6420;SDS011;3243;50.958;7.012;2023-04-03T11:13:34;2.23;;;1.33;;
6420;SDS011;3243;50.958;7.012;2023-04-03T11:16:06;1.87;;;1.40;;
6420;SDS011;3243;50.958;7.012;2023-04-03T11:18:41;4.50;;;1.40;;
6420;SDS011;3243;50.958;7.012;2023-04-03T11:22:16;1.77;;;1.30;;
6420;SDS011;3243;50.958;7.012;2023-04-03T11:24:17;2.70;;;1.60;;
6420;SDS011;3243;50.958;7.012;2023-04-03T11:26:49;2.20;;;1.40;;
6420;SDS011;3243;50.958;7.012;2023-04-03T11:29:19;1.53;;;1.30;;
6420;SDS011;3243;50.958;7.012;2023-04-03T11:34:35;1.70;;;1.27;;
6420;SDS011;3243;50.958;7.012;2023-04-03T11:40:16;2.00;;;1.27;;
6420;SDS011;3243;50.958;7.012;2023-04-03T11:48:41;2.40;;;1.50;;
6420;SDS011;3243;50.958;7.012;2023-04-03T11:50:55;1.40;;;1.27;;
6420;SDS011;3243;50.958;7.012;2023-04-03T11:56:04;1.93;;;1.30;;
6420;SDS011;3243;50.958;7.012;2023-04-03T12:01:56;2.33;;;1.23;;
6420;SDS011;3243;50.958;7.012;2023-04-03T12:04:25;1.50;;;1.00;;
6420;SDS011;3243;50.958;7.012;2023-04-03T12:07:11;3.10;;;1.40;;
6420;SDS011;3243;50.958;7.012;2023-04-03T12:12:25;2.00;;;1.30;;
6420;SDS011;3243;50.958;7.012;2023-04-03T12:15:17;1.40;;;1.27;;
6420;SDS011;3243;50.958;7.012;2023-04-03T12:21:09;2.37;;;1.30;;
6420;SDS011;3243;50.958;7.012;2023-04-03T12:23:55;2.63;;;1.30;;
6420;SDS011;3243;50.958;7.012;2023-04-03T12:45:56;2.30;;;1.50;;
6420;SDS011;3243;50.958;7.012;2023-04-03T12:48:27;2.03;;;1.47;;
6420;SDS011;3243;50.958;7.012;2023-04-03T12:50:57;2.60;;;1.67;;
6420;SDS011;3243;50.958;7.012;2023-04-03T12:53:25;1.60;;;1.47;;
6420;SDS011;3243;50.958;7.012;2023-04-03T12:55:56;2.57;;;1.40;;
6420;SDS011;3243;50.958;7.012;2023-04-03T12:58:43;2.07;;;1.30;;
6420;SDS011;3243;50.958;7.012;2023-04-03T13:01:11;2.20;;;1.40;;
6420;SDS011;3243;50.958;7.012;2023-04-03T13:03:42;1.83;;;1.43;;
6420;SDS011;3243;50.958;7.012;2023-04-03T13:08:49;1.40;;;1.30;;
6420;SDS011;3243;50.958;7.012;2023-04-03T13:11:20;1.77;;;1.43;;
6420;SDS011;3243;50.958;7.012;2023-04-03T13:13:55;2.43;;;1.33;;
6420;SDS011;3243;50.958;7.012;2023-04-03T13:16:31;1.67;;;1.30;;
6420;SDS011;3243;50.958;7.012;2023-04-03T13:19:00;2.33;;;1.37;;
6420;SDS011;3243;50.958;7.012;2023-04-03T13:21:30;2.87;;;1.43;;
6420;SDS011;3243;50.958;7.012;2023-04-03T13:24:00;2.53;;;1.60;;
6420;SDS011;3243;50.958;7.012;2023-04-03T13:26:40;2.13;;;1.30;;
6420;SDS011;3243;50.958;7.012;2023-04-03T13:29:18;2.63;;;1.50;;
6420;SDS011;3243;50.958;7.012;2023-04-03T13:31:57;2.00;;;1.70;;
6420;SDS011;3243;50.958;7.012;2023-04-03T13:34:27;2.60;;;1.60;;
6420;SDS011;3243;50.958;7.012;2023-04-03T13:36:58;2.70;;;1.27;;
6420;SDS011;3243;50.958;7.012;2023-04-03T13:39:31;2.10;;;1.67;;
6420;SDS011;3243;50.958;7.012;2023-04-03T13:42:00;2.90;;;1.53;;
6420;SDS011;3243;50.958;7.012;2023-04-03T13:44:41;3.43;;;1.40;;
6420;SDS011;3243;50.958;7.012;2023-04-03T13:49:42;2.00;;;1.53;;
6420;SDS011;3243;50.958;7.012;2023-04-03T13:52:40;2.80;;;1.50;;
6420;SDS011;3243;50.958;7.012;2023-04-03T14:02:55;2.07;;;1.50;;
6420;SDS011;3243;50.958;7.012;2023-04-03T14:05:22;4.63;;;1.60;;
6420;SDS011;3243;50.958;7.012;2023-04-03T14:07:51;1.97;;;1.50;;
6420;SDS011;3243;50.958;7.012;2023-04-03T14:10:19;6.40;;;1.70;;
6420;SDS011;3243;50.958;7.012;2023-04-03T14:12:47;3.17;;;1.60;;
6420;SDS011;3243;50.958;7.012;2023-04-03T14:17:44;1.73;;;1.53;;
6420;SDS011;3243;50.958;7.012;2023-04-03T14:20:15;4.13;;;1.70;;
6420;SDS011;3243;50.958;7.012;2023-04-03T14:22:43;3.33;;;1.50;;
6420;SDS011;3243;50.958;7.012;2023-04-03T14:25:10;4.97;;;1.60;;
6420;SDS011;3243;50.958;7.012;2023-04-03T14:27:41;2.00;;;1.60;;
6420;SDS011;3243;50.958;7.012;2023-04-03T14:30:12;2.07;;;1.50;;
6420;SDS011;3243;50.958;7.012;2023-04-03T14:32:47;3.33;;;1.40;;
6420;SDS011;3243;50.958;7.012;2023-04-03T14:35:14;4.40;;;1.60;;
6420;SDS011;3243;50.958;7.012;2023-04-03T14:37:42;2.20;;;1.60;;
6420;SDS011;3243;50.958;7.012;2023-04-03T14:40:12;1.63;;;1.40;;
6420;SDS011;3243;50.958;7.012;2023-04-03T14:42:45;4.60;;;1.70;;
6420;SDS011;3243;50.958;7.012;2023-04-03T14:45:14;2.10;;;1.33;;
6420;SDS011;3243;50.958;7.012;2023-04-03T14:47:44;3.07;;;1.33;;
6420;SDS011;3243;50.958;7.012;2023-04-03T14:50:15;5.50;;;1.70;;
6420;SDS011;3243;50.958;7.012;2023-04-03T14:52:48;7.43;;;2.30;;
6420;SDS011;3243;50.958;7.012;2023-04-03T14:55:16;3.87;;;1.70;;
6420;SDS011;3243;50.958;7.012;2023-04-03T14:57:44;2.03;;;1.40;;
6420;SDS011;3243;50.958;7.012;2023-04-03T15:00:16;3.60;;;1.63;;
6420;SDS011;3243;50.958;7.012;2023-04-03T15:02:44;3.40;;;1.47;;
6420;SDS011;3243;50.958;7.012;2023-04-03T15:05:12;3.60;;;1.43;;
6420;SDS011;3243;50.958;7.012;2023-04-03T15:07:48;2.63;;;1.50;;
6420;SDS011;3243;50.958;7.012;2023-04-03T15:10:22;3.63;;;1.63;;
6420;SDS011;3243;50.958;7.012;2023-04-03T15:12:51;2.07;;;1.77;;
6420;SDS011;3243;50.958;7.012;2023-04-03T15:15:19;2.67;;;1.60;;
6420;SDS011;3243;50.958;7.012;2023-04-03T15:17:47;3.10;;;1.70;;
6420;SDS011;3243;50.958;7.012;2023-04-03T15:20:23;2.43;;;1.70;;
6420;SDS011;3243;50.958;7.012;2023-04-03T15:22:52;2.37;;;1.47;;
6420;SDS011;3243;50.958;7.012;2023-04-03T15:25:19;1.73;;;1.43;;
6420;SDS011;3243;50.958;7.012;2023-04-03T15:27:46;4.23;;;1.50;;
6420;SDS011;3243;50.958;7.012;2023-04-03T15:30:14;3.07;;;1.63;;
6420;SDS011;3243;50.958;7.012;2023-04-03T15:32:42;4.27;;;1.53;;
6420;SDS011;3243;50.958;7.012;2023-04-03T15:35:10;1.90;;;1.50;;
6420;SDS011;3243;50.958;7.012;2023-04-03T15:37:37;2.13;;;1.70;;
6420;SDS011;3243;50.958;7.012;2023-04-03T15:40:04;1.80;;;1.50;;
6420;SDS011;3243;50.958;7.012;2023-04-03T15:42:32;3.13;;;1.57;;
6420;SDS011;3243;50.958;7.012;2023-04-03T15:44:58;2.97;;;1.50;;
6420;SDS011;3243;50.958;7.012;2023-04-03T15:47:26;3.03;;;1.70;;
6420;SDS011;3243;50.958;7.012;2023-04-03T15:49:53;2.50;;;1.63;;
6420;SDS011;3243;50.958;7.012;2023-04-03T15:52:21;5.87;;;2.07;;
6420;SDS011;3243;50.958;7.012;2023-04-03T15:54:48;3.03;;;1.90;;
6420;SDS011;3243;50.958;7.012;2023-04-03T15:57:14;4.23;;;1.60;;
6420;SDS011;3243;50.958;7.012;2023-04-03T15:59:41;3.03;;;1.60;;
6420;SDS011;3243;50.958;7.012;2023-04-03T16:02:08;2.73;;;1.63;;
6420;SDS011;3243;50.958;7.012;2023-04-03T16:04:39;3.30;;;1.60;;
6420;SDS011;3243;50.958;7.012;2023-04-03T16:07:06;3.43;;;1.60;;
6420;SDS011;3243;50.958;7.012;2023-04-03T16:09:33;2.53;;;1.50;;
6420;SDS011;3243;50.958;7.012;2023-04-03T16:12:00;3.63;;;1.80;;
6420;SDS011;3243;50.958;7.012;2023-04-03T16:14:28;6.03;;;1.60;;
6420;SDS011;3243;50.958;7.012;2023-04-03T16:16:57;3.63;;;1.83;;
6420;SDS011;3243;50.958;7.012;2023-04-03T16:19:27;3.07;;;1.50;;
6420;SDS011;3243;50.958;7.012;2023-04-03T16:21:54;3.87;;;1.97;;
6420;SDS011;3243;50.958;7.012;2023-04-03T16:24:22;2.90;;;1.67;;
6420;SDS011;3243;50.958;7.012;2023-04-03T16:26:48;4.00;;;1.60;;
6420;SDS011;3243;50.958;7.012;2023-04-03T16:29:15;1.67;;;1.57;;
6420;SDS011;3243;50.958;7.012;2023-04-03T16:31:42;2.50;;;1.70;;
6420;SDS011;3243;50.958;7.012;2023-04-03T16:34:09;6.33;;;2.37;;
6420;SDS011;3243;50.958;7.012;2023-04-03T16:36:35;3.10;;;1.50;;
6420;SDS011;3243;50.958;7.012;2023-04-03T16:39:03;4.40;;;1.70;;
6420;SDS011;3243;50.958;7.012;2023-04-03T16:41:30;2.83;;;1.60;;
6420;SDS011;3243;50.958;7.012;2023-04-03T16:43:58;2.03;;;1.60;;
6420;SDS011;3243;50.958;7.012;2023-04-03T16:46:25;2.70;;;1.40;;
6420;SDS011;3243;50.958;7.012;2023-04-03T16:48:51;1.63;;;1.53;;
6420;SDS011;3243;50.958;7.012;2023-04-03T16:51:18;3.53;;;1.80;;
6420;SDS011;3243;50.958;7.012;2023-04-03T16:53:45;2.23;;;1.70;;
6420;SDS011;3243;50.958;7.012;2023-04-03T16:56:12;3.03;;;1.50;;
6420;SDS011;3243;50.958;7.012;2023-04-03T16:58:39;2.60;;;1.43;;
6420;SDS011;3243;50.958;7.012;2023-04-03T17:01:09;2.63;;;1.50;;
6420;SDS011;3243;50.958;7.012;2023-04-03T17:03:41;3.30;;;1.70;;
6420;SDS011;3243;50.958;7.012;2023-04-03T17:06:09;2.87;;;1.70;;
6420;SDS011;3243;50.958;7.012;2023-04-03T17:08:42;2.70;;;1.50;;
6420;SDS011;3243;50.958;7.012;2023-04-03T17:11:10;3.43;;;1.40;;
6420;SDS011;3243;50.958;7.012;2023-04-03T17:13:37;3.63;;;1.40;;
6420;SDS011;3243;50.958;7.012;2023-04-03T17:16:05;2.17;;;1.50;;
6420;SDS011;3243;50.958;7.012;2023-04-03T17:18:34;3.03;;;1.47;;
6420;SDS011;3243;50.958;7.012;2023-04-03T17:21:01;3.03;;;1.60;;
6420;SDS011;3243;50.958;7.012;2023-04-03T17:23:29;3.93;;;1.50;;
6420;SDS011;3243;50.958;7.012;2023-04-03T17:25:56;2.33;;;1.43;;
6420;SDS011;3243;50.958;7.012;2023-04-03T17:28:23;6.57;;;2.00;;